Time;durP1;ratioP1;P1;durP2;ratioP2;P2;SDS_P1;SDS_P2;PMS_P1;PMS_P2;Temp;Humidity;BMP_temperature;BMP_pressure;BME280_temperature;BME280_humidity;BME280_pressure;Samples;Min_cycle;Max_cycle;Signal;HPM_P1;HPM_P2
2021/10/21 00:00:42;;;;;;;3.50;0.73;;;;;;;;;;5053787;28;20057;-58
2021/10/21 00:03:07;;;;;;;2.30;0.57;;;;;;;;;;5050835;28;20075;-58
2021/10/21 00:05:33;;;;;;;2.60;0.40;;;;;;;;;;5055767;28;20082;-58
2021/10/21 00:07:58;;;;;;;2.90;0.75;;;;;;;;;;5055905;28;20498;-58
2021/10/21 00:10:24;;;;;;;4.38;0.40;;;;;;;;;;5052777;28;20033;-59
2021/10/21 00:12:49;;;;;;;2.88;0.40;;;;;;;;;;5052883;28;20032;-58
2021/10/21 00:15:15;;;;;;;3.13;0.40;;;;;;;;;;5053557;28;20602;-59
2021/10/21 00:17:41;;;;;;;1.65;0.30;;;;;;;;;;5054205;28;20064;-58
2021/10/21 00:20:09;;;;;;;1.67;0.50;;;;;;;;;;5051004;28;20027;-59
2021/10/21 00:22:35;;;;;;;6.68;0.70;;;;;;;;;;5056545;28;20032;-59
2021/10/21 00:25:01;;;;;;;2.05;0.60;;;;;;;;;;5053199;28;20031;-58
2021/10/21 00:27:27;;;;;;;4.28;1.85;;;;;;;;;;5053765;28;20037;-59
2021/10/21 00:29:52;;;;;;;4.05;0.30;;;;;;;;;;5055646;28;20032;-58
2021/10/21 00:32:18;;;;;;;3.28;0.30;;;;;;;;;;5046718;28;20086;-59
2021/10/21 00:34:43;;;;;;;2.90;0.25;;;;;;;;;;5057812;28;20459;-58
2021/10/21 00:37:09;;;;;;;4.47;0.40;;;;;;;;;;5054781;28;20040;-58
2021/10/21 00:39:34;;;;;;;4.03;1.05;;;;;;;;;;5053672;28;20346;-57
2021/10/21 00:42:00;;;;;;;2.53;0.60;;;;;;;;;;5051968;28;20028;-58
2021/10/21 00:44:25;;;;;;;1.63;0.52;;;;;;;;;;5057677;28;20505;-58
2021/10/21 00:46:51;;;;;;;4.35;0.50;;;;;;;;;;5051916;28;21127;-58
2021/10/21 00:49:17;;;;;;;10.60;0.93;;;;;;;;;;5073071;28;20514;-58
2021/10/21 00:51:43;;;;;;;10.20;1.33;;;;;;;;;;5062249;28;20060;-57
2021/10/21 00:54:09;;;;;;;4.55;0.88;;;;;;;;;;5076417;28;20043;-58
2021/10/21 00:56:35;;;;;;;7.15;0.77;;;;;;;;;;5079842;28;20096;-58
2021/10/21 00:59:02;;;;;;;9.48;1.27;;;;;;;;;;5075248;28;20020;-58
2021/10/21 01:01:29;;;;;;;11.27;0.88;;;;;;;;;;5052866;28;20056;-59
2021/10/21 01:03:55;;;;;;;7.75;0.88;;;;;;;;;;5052785;28;20044;-60
2021/10/21 01:06:21;;;;;;;7.68;0.90;;;;;;;;;;5056916;28;20564;-60
2021/10/21 01:08:48;;;;;;;7.00;0.80;;;;;;;;;;5056943;28;20396;-58
2021/10/21 01:11:14;;;;;;;7.47;0.95;;;;;;;;;;5058231;28;20906;-58
2021/10/21 01:13:40;;;;;;;2.92;0.73;;;;;;;;;;5057542;28;20167;-59
2021/10/21 01:16:10;;;;;;;7.07;0.70;;;;;;;;;;5050842;28;20329;-58
2021/10/21 01:18:36;;;;;;;12.05;1.13;;;;;;;;;;5050621;28;20290;-58
2021/10/21 01:21:02;;;;;;;4.80;0.90;;;;;;;;;;5053295;28;20215;-58
2021/10/21 01:23:28;;;;;;;7.90;0.75;;;;;;;;;;5052397;28;20067;-59
2021/10/21 01:25:54;;;;;;;5.40;0.85;;;;;;;;;;5032567;28;20021;-59
2021/10/21 01:28:20;;;;;;;10.00;0.93;;;;;;;;;;5054200;28;20503;-57
2021/10/21 01:30:47;;;;;;;11.52;1.52;;;;;;;;;;5053092;28;20048;-59
2021/10/21 01:33:12;;;;;;;4.57;1.08;;;;;;;;;;5055520;28;20032;-59
2021/10/21 01:35:38;;;;;;;3.30;0.65;;;;;;;;;;5051692;28;20035;-59
2021/10/21 01:38:04;;;;;;;4.03;0.50;;;;;;;;;;5053636;28;20032;-58
2021/10/21 01:40:29;;;;;;;7.20;0.90;;;;;;;;;;5052823;28;20036;-58
2021/10/21 01:42:55;;;;;;;5.75;1.27;;;;;;;;;;5056504;28;20031;-58
2021/10/21 01:45:24;;;;;;;5.00;0.73;;;;;;;;;;5053735;28;20107;-58
2021/10/21 01:47:50;;;;;;;5.72;0.82;;;;;;;;;;5055915;28;20106;-58
2021/10/21 01:50:17;;;;;;;7.55;1.27;;;;;;;;;;5054487;28;20044;-58
2021/10/21 01:52:43;;;;;;;9.02;0.88;;;;;;;;;;5052886;28;20120;-58
2021/10/21 01:55:10;;;;;;;8.18;1.00;;;;;;;;;;5054387;28;20119;-58
2021/10/21 01:57:36;;;;;;;8.35;1.40;;;;;;;;;;5051740;28;20020;-58
2021/10/21 02:00:03;;;;;;;5.55;0.70;;;;;;;;;;5040387;28;20033;-59
2021/10/21 02:02:29;;;;;;;6.88;0.98;;;;;;;;;;5055123;28;20048;-58
2021/10/21 02:04:54;;;;;;;14.52;2.05;;;;;;;;;;5058106;28;20063;-57
2021/10/21 02:07:20;;;;;;;24.02;3.22;;;;;;;;;;5057669;28;20488;-59
2021/10/21 02:09:45;;;;;;;6.70;1.23;;;;;;;;;;5056673;28;20075;-58
2021/10/21 02:12:11;;;;;;;8.38;0.98;;;;;;;;;;5038418;28;20033;-59
2021/10/21 02:14:36;;;;;;;6.70;1.10;;;;;;;;;;5059043;28;20025;-59
2021/10/21 02:17:02;;;;;;;9.27;1.52;;;;;;;;;;5056796;28;20021;-59
2021/10/21 02:19:27;;;;;;;6.65;1.10;;;;;;;;;;5054234;28;20033;-58
2021/10/21 02:21:53;;;;;;;5.38;0.80;;;;;;;;;;5055030;28;20054;-52
2021/10/21 02:24:19;;;;;;;12.98;1.67;;;;;;;;;;5057625;28;20054;-53
2021/10/21 02:26:44;;;;;;;12.63;1.77;;;;;;;;;;5057375;28;20480;-51
2021/10/21 02:29:09;;;;;;;10.10;1.02;;;;;;;;;;5059864;28;20045;-53
2021/10/21 02:31:35;;;;;;;8.35;1.10;;;;;;;;;;5056855;28;20063;-52
2021/10/21 02:34:00;;;;;;;13.73;0.93;;;;;;;;;;5039356;28;20083;-54
2021/10/21 02:36:26;;;;;;;8.05;1.02;;;;;;;;;;5056543;28;20025;-52
2021/10/21 02:38:52;;;;;;;6.32;0.90;;;;;;;;;;5056931;28;20040;-53
2021/10/21 02:41:17;;;;;;;9.43;0.85;;;;;;;;;;5061173;28;20299;-52
2021/10/21 02:43:43;;;;;;;8.63;0.98;;;;;;;;;;5057465;28;20033;-51
2021/10/21 02:46:10;;;;;;;13.40;1.15;;;;;;;;;;5056103;28;20032;-49
2021/10/21 02:48:36;;;;;;;9.10;0.90;;;;;;;;;;5058921;28;20534;-50
2021/10/21 02:51:01;;;;;;;10.45;1.10;;;;;;;;;;5030961;28;20037;-50
2021/10/21 02:53:27;;;;;;;9.85;1.00;;;;;;;;;;5054599;28;20032;-52
2021/10/21 02:55:53;;;;;;;6.82;1.08;;;;;;;;;;5054588;28;20033;-51
2021/10/21 02:58:19;;;;;;;8.45;1.15;;;;;;;;;;5038919;28;20028;-53
2021/10/21 03:00:44;;;;;;;8.57;1.33;;;;;;;;;;5050211;28;20035;-50
2021/10/21 03:03:10;;;;;;;9.13;1.55;;;;;;;;;;5053115;28;20400;-52
2021/10/21 03:05:35;;;;;;;11.48;1.20;;;;;;;;;;5055441;28;20483;-53
2021/10/21 03:08:01;;;;;;;6.45;0.98;;;;;;;;;;5054596;28;20029;-53
2021/10/21 03:10:26;;;;;;;9.52;0.77;;;;;;;;;;5059229;28;20109;-53
2021/10/21 03:12:52;;;;;;;7.60;1.15;;;;;;;;;;5042823;28;20090;-50
2021/10/21 03:15:18;;;;;;;7.82;0.77;;;;;;;;;;5057624;28;20037;-52
2021/10/21 03:17:44;;;;;;;6.93;0.88;;;;;;;;;;5057444;28;20040;-52
2021/10/21 03:20:11;;;;;;;5.80;1.10;;;;;;;;;;5051380;28;20039;-52
2021/10/21 03:22:38;;;;;;;10.32;1.27;;;;;;;;;;5040458;28;20151;-52
2021/10/21 03:25:04;;;;;;;10.00;1.00;;;;;;;;;;5056085;28;20212;-52
2021/10/21 03:27:30;;;;;;;9.55;0.90;;;;;;;;;;5054557;28;20032;-53
2021/10/21 03:29:55;;;;;;;5.50;1.10;;;;;;;;;;5055930;28;20062;-52
2021/10/21 03:32:21;;;;;;;13.55;1.83;;;;;;;;;;5054862;28;20115;-49
2021/10/21 03:34:46;;;;;;;11.05;1.27;;;;;;;;;;5051920;28;20068;-53
2021/10/21 03:37:12;;;;;;;9.80;1.27;;;;;;;;;;5055393;28;20037;-54
2021/10/21 03:39:39;;;;;;;13.32;1.20;;;;;;;;;;5059796;28;20098;-51
2021/10/21 03:42:08;;;;;;;8.35;0.70;;;;;;;;;;5037286;28;20089;-51
2021/10/21 03:44:34;;;;;;;5.68;0.82;;;;;;;;;;5058248;28;20047;-52
2021/10/21 03:47:00;;;;;;;4.57;0.65;;;;;;;;;;5051170;28;20044;-49
2021/10/21 03:49:25;;;;;;;7.78;0.95;;;;;;;;;;5057822;28;20048;-50
2021/10/21 03:51:51;;;;;;;5.22;0.95;;;;;;;;;;5054805;28;20029;-52
2021/10/21 03:54:16;;;;;;;5.78;0.85;;;;;;;;;;5059691;28;20886;-52
2021/10/21 03:56:43;;;;;;;6.57;0.68;;;;;;;;;;5055846;28;20055;-52
2021/10/21 03:59:09;;;;;;;13.25;0.90;;;;;;;;;;5053264;28;20032;-52
2021/10/21 04:01:35;;;;;;;7.45;1.08;;;;;;;;;;5058880;28;20032;-51
2021/10/21 04:04:00;;;;;;;6.50;1.35;;;;;;;;;;5057679;28;20040;-50
2021/10/21 04:06:26;;;;;;;5.40;0.82;;;;;;;;;;5054433;28;20475;-52
2021/10/21 04:08:51;;;;;;;4.90;0.98;;;;;;;;;;5056280;28;20032;-52
2021/10/21 04:11:17;;;;;;;8.23;0.90;;;;;;;;;;5054992;28;20072;-52
2021/10/21 04:13:42;;;;;;;5.53;0.80;;;;;;;;;;5056246;28;20514;-50
2021/10/21 04:16:08;;;;;;;9.32;0.93;;;;;;;;;;5056883;28;20136;-51
2021/10/21 04:18:33;;;;;;;8.38;0.85;;;;;;;;;;5049198;28;20056;-53
2021/10/21 04:20:59;;;;;;;7.95;0.73;;;;;;;;;;5051410;28;20033;-52
2021/10/21 04:23:24;;;;;;;7.63;0.60;;;;;;;;;;5052886;28;20040;-52
2021/10/21 04:25:50;;;;;;;11.63;1.02;;;;;;;;;;5056715;28;20024;-53
2021/10/21 04:28:16;;;;;;;7.75;0.77;;;;;;;;;;5054194;28;20506;-51
2021/10/21 04:30:42;;;;;;;8.52;1.08;;;;;;;;;;5056224;28;20029;-52
2021/10/21 04:33:07;;;;;;;11.25;1.08;;;;;;;;;;5055998;28;20047;-53
2021/10/21 04:35:33;;;;;;;8.00;0.80;;;;;;;;;;5054777;28;20037;-53
2021/10/21 04:37:59;;;;;;;8.10;0.80;;;;;;;;;;5056590;28;20025;-52
2021/10/21 04:40:24;;;;;;;6.65;0.80;;;;;;;;;;5048690;28;20040;-50
2021/10/21 04:42:50;;;;;;;5.88;0.70;;;;;;;;;;5052198;28;20028;-51
2021/10/21 04:45:15;;;;;;;5.70;0.60;;;;;;;;;;5056950;28;20032;-50
2021/10/21 04:47:41;;;;;;;4.35;0.85;;;;;;;;;;5050168;28;20116;-52
2021/10/21 04:50:07;;;;;;;10.85;1.42;;;;;;;;;;5051770;28;20033;-54
2021/10/21 04:52:33;;;;;;;5.53;0.98;;;;;;;;;;5051060;28;20036;-52
2021/10/21 04:54:58;;;;;;;10.65;0.85;;;;;;;;;;5057553;28;20036;-53
2021/10/21 04:57:23;;;;;;;9.82;0.90;;;;;;;;;;5054704;28;20036;-53
2021/10/21 04:59:49;;;;;;;7.63;1.10;;;;;;;;;;5051020;28;20024;-50
2021/10/21 05:02:15;;;;;;;5.63;0.70;;;;;;;;;;5036777;28;20025;-52
2021/10/21 05:04:41;;;;;;;5.75;0.63;;;;;;;;;;5049617;28;20511;-52
2021/10/21 05:07:06;;;;;;;7.82;1.92;;;;;;;;;;5041952;28;20032;-52
2021/10/21 05:09:32;;;;;;;9.13;1.23;;;;;;;;;;5054847;28;20487;-53
2021/10/21 05:11:57;;;;;;;10.43;1.35;;;;;;;;;;5054841;28;20035;-53
2021/10/21 05:14:23;;;;;;;9.10;1.00;;;;;;;;;;5048773;28;20116;-52
2021/10/21 05:16:49;;;;;;;14.82;1.23;;;;;;;;;;5060967;28;20407;-53
2021/10/21 05:19:14;;;;;;;7.55;1.02;;;;;;;;;;5039100;28;20033;-52
2021/10/21 05:21:40;;;;;;;7.85;1.00;;;;;;;;;;5058952;28;20028;-51
2021/10/21 05:24:05;;;;;;;13.02;0.75;;;;;;;;;;5056548;28;20041;-52
2021/10/21 05:26:31;;;;;;;6.22;0.95;;;;;;;;;;5053781;28;20390;-53
2021/10/21 05:28:56;;;;;;;6.78;0.93;;;;;;;;;;5056487;28;20020;-54
2021/10/21 05:31:22;;;;;;;15.30;1.23;;;;;;;;;;5052839;28;20576;-52
2021/10/21 05:33:47;;;;;;;9.43;1.30;;;;;;;;;;5054899;28;20040;-52
2021/10/21 05:36:14;;;;;;;4.05;0.90;;;;;;;;;;5053011;28;20029;-52
2021/10/21 05:38:40;;;;;;;4.80;1.10;;;;;;;;;;5056389;28;20033;-52
2021/10/21 05:41:05;;;;;;;13.10;0.93;;;;;;;;;;5058591;28;20493;-49
2021/10/21 05:43:31;;;;;;;10.13;0.75;;;;;;;;;;5059536;28;20111;-52
2021/10/21 05:45:56;;;;;;;7.75;1.05;;;;;;;;;;5060893;28;20510;-49
2021/10/21 05:48:22;;;;;;;17.02;1.40;;;;;;;;;;5056533;28;20152;-49
2021/10/21 05:50:48;;;;;;;5.90;0.90;;;;;;;;;;5053190;28;20108;-49
2021/10/21 05:53:14;;;;;;;7.80;1.13;;;;;;;;;;5056514;28;20086;-49
2021/10/21 05:55:39;;;;;;;20.65;1.67;;;;;;;;;;5056427;28;20039;-51
2021/10/21 05:58:05;;;;;;;8.70;1.10;;;;;;;;;;5057490;28;20100;-50
2021/10/21 06:00:30;;;;;;;17.27;1.55;;;;;;;;;;5054888;28;20554;-52
2021/10/21 06:02:56;;;;;;;12.55;1.23;;;;;;;;;;5038462;28;20032;-51
2021/10/21 06:05:23;;;;;;;9.32;1.65;;;;;;;;;;5045322;28;20555;-51
2021/10/21 06:07:51;;;;;;;4.47;1.00;;;;;;;;;;5050225;28;20548;-51
2021/10/21 06:10:17;;;;;;;21.85;1.30;;;;;;;;;;5055259;28;20065;-52
2021/10/21 06:12:44;;;;;;;6.15;1.17;;;;;;;;;;5056903;28;20504;-51
2021/10/21 06:15:13;;;;;;;3.05;0.75;;;;;;;;;;5051713;28;20035;-52
2021/10/21 06:17:41;;;;;;;7.82;0.82;;;;;;;;;;5057418;28;20031;-51
2021/10/21 06:20:10;;;;;;;5.93;0.88;;;;;;;;;;5059095;28;20514;-52
2021/10/21 06:22:36;;;;;;;8.40;1.48;;;;;;;;;;5054527;28;22094;-51
2021/10/21 06:25:03;;;;;;;16.13;1.23;;;;;;;;;;5051650;28;20024;-48
2021/10/21 06:27:29;;;;;;;12.52;1.23;;;;;;;;;;5056038;28;20033;-53
2021/10/21 06:29:54;;;;;;;15.70;1.80;;;;;;;;;;5051439;28;20033;-51
2021/10/21 06:32:20;;;;;;;6.05;0.93;;;;;;;;;;5052690;28;20033;-49
2021/10/21 06:34:45;;;;;;;10.88;0.88;;;;;;;;;;5057424;28;20036;-51
2021/10/21 06:37:11;;;;;;;13.10;0.90;;;;;;;;;;5056461;28;20033;-51
2021/10/21 06:39:36;;;;;;;12.82;1.27;;;;;;;;;;5055903;28;20036;-50
2021/10/21 06:42:02;;;;;;;25.25;2.03;;;;;;;;;;5041576;28;20111;-51
2021/10/21 06:44:27;;;;;;;10.02;1.33;;;;;;;;;;5057653;28;20411;-52
2021/10/21 06:46:53;;;;;;;7.85;1.30;;;;;;;;;;5054347;28;20483;-51
2021/10/21 06:49:18;;;;;;;15.55;1.50;;;;;;;;;;5056870;28;20178;-52
2021/10/21 06:51:44;;;;;;;9.15;1.17;;;;;;;;;;5052172;28;20051;-50
2021/10/21 06:54:09;;;;;;;18.95;2.47;;;;;;;;;;5050283;28;20056;-49
2021/10/21 06:56:35;;;;;;;7.30;1.38;;;;;;;;;;5058189;28;20028;-51
2021/10/21 06:59:01;;;;;;;9.93;0.93;;;;;;;;;;5059811;28;20025;-50
2021/10/21 07:01:26;;;;;;;15.02;1.92;;;;;;;;;;5055214;28;20146;-48
2021/10/21 07:03:51;;;;;;;8.02;1.30;;;;;;;;;;5036260;28;20098;-51
2021/10/21 07:06:17;;;;;;;7.75;1.20;;;;;;;;;;5054012;28;20234;-50
2021/10/21 07:08:42;;;;;;;18.27;1.52;;;;;;;;;;5052096;28;20063;-52
2021/10/21 07:11:09;;;;;;;8.40;1.00;;;;;;;;;;5026228;28;20628;-51
2021/10/21 07:13:35;;;;;;;10.35;1.42;;;;;;;;;;5057957;28;20069;-50
2021/10/21 07:16:00;;;;;;;17.02;1.75;;;;;;;;;;5052923;28;20076;-50
2021/10/21 07:18:25;;;;;;;7.57;1.20;;;;;;;;;;5054775;28;20029;-53
2021/10/21 07:20:51;;;;;;;10.35;1.85;;;;;;;;;;5052257;28;20037;-53
2021/10/21 07:23:17;;;;;;;7.75;1.67;;;;;;;;;;5055309;28;20033;-50
2021/10/21 07:25:43;;;;;;;14.02;1.65;;;;;;;;;;5059147;28;20070;-50
2021/10/21 07:28:08;;;;;;;12.75;1.35;;;;;;;;;;5054862;28;20280;-49
2021/10/21 07:30:34;;;;;;;13.80;1.40;;;;;;;;;;5051002;28;20028;-51
2021/10/21 07:33:00;;;;;;;12.48;1.30;;;;;;;;;;5042062;28;20140;-53
2021/10/21 07:35:26;;;;;;;8.45;1.05;;;;;;;;;;5054084;28;20043;-53
2021/10/21 07:37:52;;;;;;;15.75;1.60;;;;;;;;;;5055951;28;20032;-53
2021/10/21 07:40:18;;;;;;;9.88;1.75;;;;;;;;;;5056026;28;20489;-52
2021/10/21 07:42:44;;;;;;;11.30;1.75;;;;;;;;;;5051041;28;20110;-52
2021/10/21 07:45:10;;;;;;;9.10;1.60;;;;;;;;;;5058059;28;20032;-51
2021/10/21 07:47:36;;;;;;;11.63;2.47;;;;;;;;;;5056316;28;20021;-53
2021/10/21 07:50:07;;;;;;;17.10;1.55;;;;;;;;;;5057400;28;20502;-52
2021/10/21 07:52:34;;;;;;;9.77;1.98;;;;;;;;;;5046144;28;20396;-49
2021/10/21 07:54:59;;;;;;;26.02;1.92;;;;;;;;;;5055335;28;20032;-53
2021/10/21 07:57:26;;;;;;;14.35;1.55;;;;;;;;;;5052937;28;20415;-52
2021/10/21 07:59:52;;;;;;;10.77;1.05;;;;;;;;;;5056156;28;20508;-50
2021/10/21 08:02:19;;;;;;;13.85;1.45;;;;;;;;;;5053878;28;20062;-53
2021/10/21 08:04:45;;;;;;;12.52;1.48;;;;;;;;;;5054768;28;20102;-53
2021/10/21 08:07:11;;;;;;;8.95;1.30;;;;;;;;;;5051605;28;20460;-51
2021/10/21 08:09:36;;;;;;;3.85;1.15;;;;;;;;;;5059953;28;20023;-53
2021/10/21 08:12:04;;;;;;;12.52;1.65;;;;;;;;;;5055432;28;20468;-50
2021/10/21 08:14:31;;;;;;;12.20;0.98;;;;;;;;;;5057753;28;20033;-51
2021/10/21 08:16:58;;;;;;;12.70;1.23;;;;;;;;;;5059666;28;20022;-49
2021/10/21 08:19:24;;;;;;;8.40;1.15;;;;;;;;;;5057986;28;20036;-52
2021/10/21 08:21:50;;;;;;;14.85;1.30;;;;;;;;;;5053666;28;20025;-52
2021/10/21 08:24:18;;;;;;;9.73;1.27;;;;;;;;;;5052696;28;20267;-52
2021/10/21 08:26:44;;;;;;;5.50;1.10;;;;;;;;;;5062024;28;20483;-50
2021/10/21 08:29:10;;;;;;;3.22;0.98;;;;;;;;;;5064799;28;20037;-50
2021/10/21 08:31:35;;;;;;;9.88;1.55;;;;;;;;;;5054348;28;20033;-50
2021/10/21 08:34:02;;;;;;;9.18;0.85;;;;;;;;;;5053026;28;20029;-52
2021/10/21 08:36:28;;;;;;;7.78;1.15;;;;;;;;;;5057659;28;20036;-51
2021/10/21 08:38:54;;;;;;;11.98;2.55;;;;;;;;;;5051578;28;20055;-54
2021/10/21 08:41:25;;;;;;;8.75;1.42;;;;;;;;;;5052905;28;20484;-56
2021/10/21 08:43:51;;;;;;;7.00;1.25;;;;;;;;;;5053031;28;21043;-50
2021/10/21 08:46:22;;;;;;;8.32;1.08;;;;;;;;;;5059834;28;20535;-52
2021/10/21 08:48:59;;;;;;;12.02;1.63;;;;;;;;;;5062616;28;20105;-50
2021/10/21 08:51:26;;;;;;;5.28;1.30;;;;;;;;;;5051951;28;20098;-53
2021/10/21 08:53:53;;;;;;;13.80;1.50;;;;;;;;;;5055342;28;20574;-52
2021/10/21 08:56:23;;;;;;;6.22;1.17;;;;;;;;;;5054063;28;20128;-52
2021/10/21 08:58:49;;;;;;;19.23;2.10;;;;;;;;;;5056153;28;20110;-52
2021/10/21 09:01:19;;;;;;;10.48;1.58;;;;;;;;;;5056907;28;20183;-52
2021/10/21 09:04:02;;;;;;;15.48;1.52;;;;;;;;;;5053396;28;20045;-52
2021/10/21 09:06:34;;;;;;;7.18;1.42;;;;;;;;;;5034697;28;20027;-53
2021/10/21 09:09:00;;;;;;;10.30;1.17;;;;;;;;;;5058639;28;20031;-51
2021/10/21 09:11:26;;;;;;;6.65;1.02;;;;;;;;;;5062847;28;20024;-50
2021/10/21 09:14:13;;;;;;;3.33;1.23;;;;;;;;;;5054700;28;20102;-53
2021/10/21 09:16:41;;;;;;;3.85;0.73;;;;;;;;;;5057805;28;20052;-53
2021/10/21 09:19:08;;;;;;;8.10;1.15;;;;;;;;;;5055148;28;20104;-52
2021/10/21 09:21:37;;;;;;;8.45;0.93;;;;;;;;;;5054074;28;20107;-53
2021/10/21 09:24:27;;;;;;;18.08;1.42;;;;;;;;;;5050935;28;20037;-53
2021/10/21 09:27:13;;;;;;;4.60;1.02;;;;;;;;;;5057978;28;20584;-51
2021/10/21 09:29:48;;;;;;;11.35;1.77;;;;;;;;;;5052878;28;20339;-51
2021/10/21 09:32:17;;;;;;;9.00;2.40;;;;;;;;;;5059044;28;20063;-51
2021/10/21 09:34:53;;;;;;;7.53;1.45;;;;;;;;;;5052815;28;20111;-52
2021/10/21 09:37:26;;;;;;;5.97;1.10;;;;;;;;;;5051951;28;20126;-52
2021/10/21 09:39:53;;;;;;;9.25;0.98;;;;;;;;;;5053964;28;20476;-48
2021/10/21 09:42:25;;;;;;;15.68;1.45;;;;;;;;;;5052651;28;20078;-51
2021/10/21 09:45:08;;;;;;;14.40;1.35;;;;;;;;;;5038246;28;20082;-51
2021/10/21 09:47:37;;;;;;;9.15;1.30;;;;;;;;;;5049653;28;20111;-52
2021/10/21 09:50:32;;;;;;;12.35;1.88;;;;;;;;;;5058830;28;20041;-51
2021/10/21 09:53:17;;;;;;;7.20;1.40;;;;;;;;;;5055500;28;20029;-51
2021/10/21 09:55:48;;;;;;;6.70;1.30;;;;;;;;;;5052490;28;20033;-51
2021/10/21 09:58:18;;;;;;;12.00;1.60;;;;;;;;;;5054311;28;20063;-51
2021/10/21 10:00:44;;;;;;;9.75;1.42;;;;;;;;;;5052534;28;20040;-52
2021/10/21 10:03:20;;;;;;;9.25;1.40;;;;;;;;;;5061506;28;20024;-51
2021/10/21 10:05:50;;;;;;;8.85;1.10;;;;;;;;;;5056032;28;20107;-53
2021/10/21 10:08:23;;;;;;;8.85;1.25;;;;;;;;;;5056979;28;20035;-53
2021/10/21 10:10:52;;;;;;;8.10;1.23;;;;;;;;;;5060063;28;20048;-53
2021/10/21 10:13:19;;;;;;;10.25;1.42;;;;;;;;;;5058001;28;20047;-52
2021/10/21 10:15:47;;;;;;;7.43;1.13;;;;;;;;;;5057931;28;20074;-52
2021/10/21 10:18:20;;;;;;;10.20;0.98;;;;;;;;;;5062391;28;20044;-52
2021/10/21 10:20:52;;;;;;;2.97;0.60;;;;;;;;;;5051096;28;20033;-53
2021/10/21 10:23:19;;;;;;;6.53;0.90;;;;;;;;;;5051985;28;20063;-52
2021/10/21 10:25:47;;;;;;;8.68;1.13;;;;;;;;;;5054734;28;20028;-52
2021/10/21 10:28:13;;;;;;;8.23;1.35;;;;;;;;;;5056940;28;20041;-51
2021/10/21 10:30:40;;;;;;;3.45;0.70;;;;;;;;;;5056657;28;20029;-53
2021/10/21 10:33:05;;;;;;;8.45;1.20;;;;;;;;;;5055690;28;20035;-54
2021/10/21 10:35:33;;;;;;;9.90;1.55;;;;;;;;;;5054218;28;20529;-53
2021/10/21 10:38:01;;;;;;;7.28;1.13;;;;;;;;;;5056536;28;20029;-53
2021/10/21 10:40:39;;;;;;;13.50;1.63;;;;;;;;;;5057716;28;20033;-50
2021/10/21 10:43:05;;;;;;;7.63;1.05;;;;;;;;;;5065444;28;20498;-52
2021/10/21 10:45:42;;;;;;;6.82;1.05;;;;;;;;;;5058590;28;20029;-54
2021/10/21 10:48:09;;;;;;;9.07;1.58;;;;;;;;;;5065778;28;20055;-54
2021/10/21 10:50:35;;;;;;;7.47;1.30;;;;;;;;;;5058514;28;20032;-53
2021/10/21 10:53:04;;;;;;;9.30;1.20;;;;;;;;;;5061541;28;20103;-52
2021/10/21 10:55:50;;;;;;;9.52;0.98;;;;;;;;;;5056410;28;20120;-53
2021/10/21 10:58:16;;;;;;;10.23;1.83;;;;;;;;;;5051841;28;20395;-54
2021/10/21 11:00:54;;;;;;;9.13;1.08;;;;;;;;;;5059994;28;20055;-50
2021/10/21 11:03:35;;;;;;;9.02;1.13;;;;;;;;;;5058712;28;20032;-51
2021/10/21 11:06:09;;;;;;;8.48;0.82;;;;;;;;;;5055281;28;20082;-52
2021/10/21 11:09:06;;;;;;;6.28;0.80;;;;;;;;;;5057668;28;20042;-50
2021/10/21 11:11:54;;;;;;;14.23;1.83;;;;;;;;;;5037197;28;20048;-51
2021/10/21 11:14:33;;;;;;;8.20;1.30;;;;;;;;;;5051209;28;20037;-52
2021/10/21 11:16:59;;;;;;;11.05;1.45;;;;;;;;;;5055569;28;20025;-49
2021/10/21 11:19:43;;;;;;;10.75;1.30;;;;;;;;;;5054434;28;20029;-50
2021/10/21 11:22:10;;;;;;;10.00;1.08;;;;;;;;;;5057385;28;20063;-53
2021/10/21 11:24:45;;;;;;;20.13;1.25;;;;;;;;;;5058565;28;20064;-50
2021/10/21 11:27:16;;;;;;;9.82;1.02;;;;;;;;;;5057103;28;20060;-52
2021/10/21 11:29:44;;;;;;;11.25;2.13;;;;;;;;;;5054918;28;20114;-51
2021/10/21 11:32:10;;;;;;;10.30;1.60;;;;;;;;;;5059514;28;20112;-53
2021/10/21 11:34:36;;;;;;;9.00;1.48;;;;;;;;;;5054263;28;20033;-49
2021/10/21 11:37:03;;;;;;;10.65;1.55;;;;;;;;;;5056250;28;20074;-49
2021/10/21 11:39:39;;;;;;;5.80;1.10;;;;;;;;;;5054977;28;20067;-53
2021/10/21 11:42:06;;;;;;;6.97;1.10;;;;;;;;;;5037705;28;20037;-53
2021/10/21 11:44:32;;;;;;;12.00;1.17;;;;;;;;;;5054501;28;20382;-53
2021/10/21 11:46:59;;;;;;;11.93;1.70;;;;;;;;;;5051485;28;20119;-55
2021/10/21 11:49:29;;;;;;;6.72;1.17;;;;;;;;;;5056196;28;20094;-50
2021/10/21 11:52:10;;;;;;;7.20;1.13;;;;;;;;;;5040857;28;20031;-54
2021/10/21 11:54:37;;;;;;;7.40;1.70;;;;;;;;;;5053516;28;20081;-54
2021/10/21 11:57:04;;;;;;;8.73;1.20;;;;;;;;;;5059112;28;20033;-56
2021/10/21 11:59:34;;;;;;;7.32;1.17;;;;;;;;;;5053995;28;20029;-56
2021/10/21 12:02:14;;;;;;;11.27;1.42;;;;;;;;;;5056678;28;20036;-54
2021/10/21 12:04:43;;;;;;;8.70;1.13;;;;;;;;;;5037931;28;20437;-55
2021/10/21 12:07:10;;;;;;;10.93;1.88;;;;;;;;;;5054835;28;20462;-55
2021/10/21 12:09:38;;;;;;;8.00;1.80;;;;;;;;;;5052798;28;20064;-53
2021/10/21 12:12:05;;;;;;;11.25;1.45;;;;;;;;;;5058036;28;20031;-53
2021/10/21 12:14:30;;;;;;;6.30;1.20;;;;;;;;;;5058559;28;20215;-53
2021/10/21 12:16:56;;;;;;;8.23;1.50;;;;;;;;;;5060887;28;20557;-55
2021/10/21 12:19:24;;;;;;;9.50;1.55;;;;;;;;;;5059718;28;20032;-56
2021/10/21 12:21:50;;;;;;;9.00;1.35;;;;;;;;;;5059679;28;20097;-55
2021/10/21 12:24:21;;;;;;;7.40;1.10;;;;;;;;;;5057448;28;20047;-54
2021/10/21 12:27:02;;;;;;;5.95;1.33;;;;;;;;;;5060679;28;20441;-55
2021/10/21 12:29:42;;;;;;;4.57;1.10;;;;;;;;;;5057285;28;20094;-53
2021/10/21 12:32:11;;;;;;;11.48;1.55;;;;;;;;;;5059048;28;20055;-50
2021/10/21 12:34:36;;;;;;;10.02;1.48;;;;;;;;;;5053951;28;20438;-52
2021/10/21 12:37:08;;;;;;;13.63;1.67;;;;;;;;;;5052445;28;20021;-53
2021/10/21 12:39:34;;;;;;;12.13;1.58;;;;;;;;;;5055963;28;20491;-53
2021/10/21 12:42:06;;;;;;;10.95;1.00;;;;;;;;;;5038586;28;20032;-55
2021/10/21 12:44:31;;;;;;;;;;;;;;;;;;5052131;28;20129;-52
2021/10/21 12:47:06;;;;;;;13.80;1.38;;;;;;;;;;5052907;28;19978;-52
2021/10/21 12:49:31;;;;;;;12.32;1.42;;;;;;;;;;5051354;28;20048;-54
2021/10/21 12:52:08;;;;;;;12.18;1.52;;;;;;;;;;5051430;28;20033;-54
2021/10/21 12:54:36;;;;;;;9.65;1.25;;;;;;;;;;5051662;28;20163;-54
2021/10/21 12:57:02;;;;;;;10.32;1.40;;;;;;;;;;5045347;28;20029;-53
2021/10/21 12:59:33;;;;;;;7.72;1.98;;;;;;;;;;5049728;28;20033;-54
2021/10/21 13:02:15;;;;;;;12.90;1.35;;;;;;;;;;5062112;28;20548;-54
2021/10/21 13:04:41;;;;;;;7.25;0.95;;;;;;;;;;5054799;28;20035;-53
2021/10/21 13:07:08;;;;;;;9.38;1.95;;;;;;;;;;5031067;28;20853;-53
2021/10/21 13:09:34;;;;;;;12.82;1.77;;;;;;;;;;5052149;28;20056;-53
2021/10/21 13:12:00;;;;;;;13.88;2.10;;;;;;;;;;5060896;28;20081;-55
2021/10/21 13:14:31;;;;;;;6.32;1.45;;;;;;;;;;5053162;28;20581;-55
2021/10/21 13:16:56;;;;;;;10.75;1.30;;;;;;;;;;5063699;28;20029;-54
2021/10/21 13:19:22;;;;;;;8.57;1.30;;;;;;;;;;5053543;28;20040;-54
2021/10/21 13:21:48;;;;;;;8.55;1.58;;;;;;;;;;5054538;28;20391;-55
2021/10/21 13:24:14;;;;;;;7.85;1.65;;;;;;;;;;5057583;28;20561;-55
2021/10/21 13:26:39;;;;;;;9.05;1.23;;;;;;;;;;5053837;28;20492;-53
2021/10/21 13:29:06;;;;;;;8.25;1.50;;;;;;;;;;5048489;28;20171;-54
2021/10/21 13:31:32;;;;;;;11.68;2.25;;;;;;;;;;5043493;28;20525;-53
2021/10/21 13:33:57;;;;;;;10.95;3.05;;;;;;;;;;5057111;28;20034;-53
2021/10/21 13:36:23;;;;;;;7.85;2.08;;;;;;;;;;5053489;28;20029;-55
2021/10/21 13:38:51;;;;;;;7.65;1.60;;;;;;;;;;5059546;28;20044;-53
2021/10/21 13:41:16;;;;;;;12.18;1.73;;;;;;;;;;5055993;28;20043;-53
2021/10/21 13:43:42;;;;;;;17.75;2.60;;;;;;;;;;5060221;28;20127;-52
2021/10/21 13:46:08;;;;;;;20.30;2.15;;;;;;;;;;5060099;28;20446;-53
2021/10/21 13:48:34;;;;;;;10.90;1.40;;;;;;;;;;5053217;28;20055;-53
2021/10/21 13:50:59;;;;;;;7.32;1.63;;;;;;;;;;5057901;28;20029;-53
2021/10/21 13:53:25;;;;;;;12.40;1.42;;;;;;;;;;5054144;28;20079;-54
2021/10/21 13:55:50;;;;;;;10.50;1.98;;;;;;;;;;5037915;28;20033;-52
2021/10/21 13:58:16;;;;;;;12.52;1.98;;;;;;;;;;5060374;28;20029;-53
2021/10/21 14:00:42;;;;;;;11.23;1.70;;;;;;;;;;5062666;28;20047;-52
2021/10/21 14:03:07;;;;;;;13.50;1.70;;;;;;;;;;5059864;28;20451;-52
2021/10/21 14:05:35;;;;;;;9.30;1.50;;;;;;;;;;5053302;28;20054;-53
2021/10/21 14:08:01;;;;;;;15.27;2.20;;;;;;;;;;5058516;28;20523;-53
2021/10/21 14:10:27;;;;;;;9.48;1.67;;;;;;;;;;5059247;28;20476;-51
2021/10/21 14:12:53;;;;;;;12.05;1.73;;;;;;;;;;5044060;28;20021;-50
2021/10/21 14:15:20;;;;;;;11.63;1.77;;;;;;;;;;5057411;28;20025;-52
2021/10/21 14:17:45;;;;;;;9.80;2.40;;;;;;;;;;5055623;28;20411;-54
2021/10/21 14:20:11;;;;;;;7.97;1.75;;;;;;;;;;5062584;28;20024;-51
2021/10/21 14:22:37;;;;;;;8.95;2.00;;;;;;;;;;5040594;28;20107;-51
2021/10/21 14:25:06;;;;;;;6.05;1.58;;;;;;;;;;5062687;28;20111;-51
2021/10/21 14:27:33;;;;;;;10.77;1.77;;;;;;;;;;5064293;28;20033;-52
2021/10/21 14:29:58;;;;;;;14.40;1.80;;;;;;;;;;5058447;28;20021;-53
2021/10/21 14:32:24;;;;;;;8.52;2.42;;;;;;;;;;5055865;28;20106;-50
2021/10/21 14:34:49;;;;;;;15.07;1.65;;;;;;;;;;5057265;28;20029;-52
2021/10/21 14:37:16;;;;;;;16.33;2.40;;;;;;;;;;5058321;28;20025;-50
2021/10/21 14:39:41;;;;;;;12.13;1.92;;;;;;;;;;5064113;28;20051;-53